sensor_id;sensor_type;location;lat;lon;timestamp;P1;durP1;ratioP1;P2;durP2;ratioP2
57593;SDS011;43423;46.510;6.686;2022-11-15T00:00:50;5.22;;;3.03;;
57593;SDS011;43423;46.510;6.686;2022-11-15T00:03:20;3.42;;;2.58;;
57593;SDS011;43423;46.510;6.686;2022-11-15T00:05:48;8.20;;;3.53;;
57593;SDS011;43423;46.510;6.686;2022-11-15T00:08:14;5.57;;;3.83;;
57593;SDS011;43423;46.510;6.686;2022-11-15T00:10:40;5.45;;;3.65;;
57593;SDS011;43423;46.510;6.686;2022-11-15T00:13:10;6.75;;;3.67;;
57593;SDS011;43423;46.510;6.686;2022-11-15T00:15:37;5.70;;;3.45;;
57593;SDS011;43423;46.510;6.686;2022-11-15T00:18:04;5.63;;;3.53;;
57593;SDS011;43423;46.510;6.686;2022-11-15T00:20:33;4.80;;;3.20;;
57593;SDS011;43423;46.510;6.686;2022-11-15T00:22:59;8.07;;;3.65;;
57593;SDS011;43423;46.510;6.686;2022-11-15T00:25:25;7.03;;;4.20;;
57593;SDS011;43423;46.510;6.686;2022-11-15T00:27:56;8.15;;;4.10;;
57593;SDS011;43423;46.510;6.686;2022-11-15T00:30:22;5.30;;;3.63;;
57593;SDS011;43423;46.510;6.686;2022-11-15T00:32:49;6.22;;;3.20;;
57593;SDS011;43423;46.510;6.686;2022-11-15T00:35:17;10.77;;;4.03;;
57593;SDS011;43423;46.510;6.686;2022-11-15T00:37:44;7.28;;;3.45;;
57593;SDS011;43423;46.510;6.686;2022-11-15T00:40:10;7.82;;;3.60;;
57593;SDS011;43423;46.510;6.686;2022-11-15T00:42:38;5.53;;;3.70;;
57593;SDS011;43423;46.510;6.686;2022-11-15T00:45:04;5.38;;;3.67;;
57593;SDS011;43423;46.510;6.686;2022-11-15T00:47:30;7.53;;;4.30;;
57593;SDS011;43423;46.510;6.686;2022-11-15T00:49:58;7.88;;;4.30;;
57593;SDS011;43423;46.510;6.686;2022-11-15T00:52:28;6.68;;;3.70;;
57593;SDS011;43423;46.510;6.686;2022-11-15T00:54:54;5.55;;;3.45;;
57593;SDS011;43423;46.510;6.686;2022-11-15T00:57:20;4.78;;;3.33;;
57593;SDS011;43423;46.510;6.686;2022-11-15T00:59:46;8.35;;;3.50;;
57593;SDS011;43423;46.510;6.686;2022-11-15T01:02:12;10.43;;;3.28;;
57593;SDS011;43423;46.510;6.686;2022-11-15T01:04:40;6.60;;;3.35;;
57593;SDS011;43423;46.510;6.686;2022-11-15T01:07:08;4.35;;;2.78;;
57593;SDS011;43423;46.510;6.686;2022-11-15T01:09:36;4.53;;;2.78;;
57593;SDS011;43423;46.510;6.686;2022-11-15T01:12:06;4.90;;;2.60;;
57593;SDS011;43423;46.510;6.686;2022-11-15T01:14:31;4.03;;;2.40;;
57593;SDS011;43423;46.510;6.686;2022-11-15T01:16:57;6.95;;;2.92;;
57593;SDS011;43423;46.510;6.686;2022-11-15T01:19:23;3.13;;;2.80;;
57593;SDS011;43423;46.510;6.686;2022-11-15T01:21:49;5.50;;;2.70;;
57593;SDS011;43423;46.510;6.686;2022-11-15T01:24:16;4.63;;;3.00;;
57593;SDS011;43423;46.510;6.686;2022-11-15T01:26:42;4.43;;;2.90;;
57593;SDS011;43423;46.510;6.686;2022-11-15T01:29:07;4.50;;;2.92;;
57593;SDS011;43423;46.510;6.686;2022-11-15T01:31:36;8.32;;;3.00;;
57593;SDS011;43423;46.510;6.686;2022-11-15T01:34:02;5.90;;;3.35;;
57593;SDS011;43423;46.510;6.686;2022-11-15T01:36:27;4.03;;;2.95;;
57593;SDS011;43423;46.510;6.686;2022-11-15T01:38:54;6.03;;;3.70;;
57593;SDS011;43423;46.510;6.686;2022-11-15T01:41:23;6.88;;;3.38;;
57593;SDS011;43423;46.510;6.686;2022-11-15T01:43:54;5.38;;;2.65;;
57593;SDS011;43423;46.510;6.686;2022-11-15T01:48:47;4.85;;;2.53;;
57593;SDS011;43423;46.510;6.686;2022-11-15T01:51:17;6.78;;;2.83;;
57593;SDS011;43423;46.510;6.686;2022-11-15T01:53:46;5.05;;;3.30;;
57593;SDS011;43423;46.510;6.686;2022-11-15T01:56:17;6.40;;;3.38;;
57593;SDS011;43423;46.510;6.686;2022-11-15T01:58:45;7.15;;;3.70;;
57593;SDS011;43423;46.510;6.686;2022-11-15T02:01:14;5.70;;;3.20;;
57593;SDS011;43423;46.510;6.686;2022-11-15T02:06:31;6.50;;;3.63;;
57593;SDS011;43423;46.510;6.686;2022-11-15T02:09:07;4.93;;;2.90;;
57593;SDS011;43423;46.510;6.686;2022-11-15T02:11:33;2.72;;;2.00;;
57593;SDS011;43423;46.510;6.686;2022-11-15T02:13:58;4.68;;;2.00;;
57593;SDS011;43423;46.510;6.686;2022-11-15T02:16:40;3.00;;;2.10;;
57593;SDS011;43423;46.510;6.686;2022-11-15T02:30:55;2.00;;;1.50;;
57593;SDS011;43423;46.510;6.686;2022-11-15T02:36:42;4.85;;;1.83;;
57593;SDS011;43423;46.510;6.686;2022-11-15T02:42:02;2.40;;;1.65;;
57593;SDS011;43423;46.510;6.686;2022-11-15T02:44:55;2.20;;;1.70;;
57593;SDS011;43423;46.510;6.686;2022-11-15T02:47:23;1.73;;;1.42;;
57593;SDS011;43423;46.510;6.686;2022-11-15T02:49:53;2.13;;;1.50;;
57593;SDS011;43423;46.510;6.686;2022-11-15T02:52:23;2.30;;;1.48;;
57593;SDS011;43423;46.510;6.686;2022-11-15T02:54:54;4.20;;;1.90;;
57593;SDS011;43423;46.510;6.686;2022-11-15T02:57:22;2.88;;;1.75;;
57593;SDS011;43423;46.510;6.686;2022-11-15T03:10:52;2.10;;;1.50;;
57593;SDS011;43423;46.510;6.686;2022-11-15T03:16:11;3.17;;;1.80;;
57593;SDS011;43423;46.510;6.686;2022-11-15T03:18:52;2.88;;;1.95;;
57593;SDS011;43423;46.510;6.686;2022-11-15T03:21:28;2.95;;;1.70;;
57593;SDS011;43423;46.510;6.686;2022-11-15T03:23:57;2.80;;;1.52;;
57593;SDS011;43423;46.510;6.686;2022-11-15T03:26:26;1.83;;;1.60;;
57593;SDS011;43423;46.510;6.686;2022-11-15T03:29:02;1.70;;;1.60;;
57593;SDS011;43423;46.510;6.686;2022-11-15T03:31:33;2.45;;;1.67;;
57593;SDS011;43423;46.510;6.686;2022-11-15T03:37:29;2.25;;;1.35;;
57593;SDS011;43423;46.510;6.686;2022-11-15T03:40:09;2.17;;;1.63;;
57593;SDS011;43423;46.510;6.686;2022-11-15T03:45:31;3.25;;;1.60;;
57593;SDS011;43423;46.510;6.686;2022-11-15T03:48:13;2.13;;;1.50;;
57593;SDS011;43423;46.510;6.686;2022-11-15T03:50:44;1.40;;;1.30;;
57593;SDS011;43423;46.510;6.686;2022-11-15T03:53:13;2.10;;;1.38;;
57593;SDS011;43423;46.510;6.686;2022-11-15T03:55:39;2.55;;;1.45;;
57593;SDS011;43423;46.510;6.686;2022-11-15T03:58:08;2.25;;;1.33;;
57593;SDS011;43423;46.510;6.686;2022-11-15T04:00:34;2.00;;;1.83;;
57593;SDS011;43423;46.510;6.686;2022-11-15T04:03:00;2.75;;;1.70;;
57593;SDS011;43423;46.510;6.686;2022-11-15T04:05:34;1.92;;;1.27;;
57593;SDS011;43423;46.510;6.686;2022-11-15T04:08:00;1.70;;;1.30;;
57593;SDS011;43423;46.510;6.686;2022-11-15T04:10:25;1.70;;;1.23;;
57593;SDS011;43423;46.510;6.686;2022-11-15T04:12:51;2.90;;;1.58;;
57593;SDS011;43423;46.510;6.686;2022-11-15T04:15:18;1.30;;;1.20;;
57593;SDS011;43423;46.510;6.686;2022-11-15T04:17:53;2.22;;;1.40;;
57593;SDS011;43423;46.510;6.686;2022-11-15T04:20:24;3.88;;;1.45;;
57593;SDS011;43423;46.510;6.686;2022-11-15T04:23:10;1.27;;;1.00;;
57593;SDS011;43423;46.510;6.686;2022-11-15T04:25:55;3.88;;;1.60;;
57593;SDS011;43423;46.510;6.686;2022-11-15T04:28:23;3.58;;;1.60;;
57593;SDS011;43423;46.510;6.686;2022-11-15T04:30:49;1.75;;;1.30;;
57593;SDS011;43423;46.510;6.686;2022-11-15T04:33:15;3.38;;;1.60;;
57593;SDS011;43423;46.510;6.686;2022-11-15T04:35:41;4.20;;;1.70;;
57593;SDS011;43423;46.510;6.686;2022-11-15T04:38:08;2.83;;;1.55;;
57593;SDS011;43423;46.510;6.686;2022-11-15T04:40:35;1.67;;;1.58;;
57593;SDS011;43423;46.510;6.686;2022-11-15T04:43:01;3.92;;;1.83;;
57593;SDS011;43423;46.510;6.686;2022-11-15T04:45:33;2.75;;;1.75;;
57593;SDS011;43423;46.510;6.686;2022-11-15T04:47:58;4.03;;;1.88;;
57593;SDS011;43423;46.510;6.686;2022-11-15T04:50:24;1.98;;;1.60;;
57593;SDS011;43423;46.510;6.686;2022-11-15T04:52:53;3.50;;;1.80;;
57593;SDS011;43423;46.510;6.686;2022-11-15T04:55:21;4.82;;;1.83;;
57593;SDS011;43423;46.510;6.686;2022-11-15T04:57:47;3.28;;;2.33;;
57593;SDS011;43423;46.510;6.686;2022-11-15T05:00:13;5.18;;;1.60;;
57593;SDS011;43423;46.510;6.686;2022-11-15T05:02:43;5.45;;;1.67;;
57593;SDS011;43423;46.510;6.686;2022-11-15T05:05:27;4.57;;;1.80;;
57593;SDS011;43423;46.510;6.686;2022-11-15T05:07:54;2.88;;;1.88;;
57593;SDS011;43423;46.510;6.686;2022-11-15T05:10:19;3.47;;;2.05;;
57593;SDS011;43423;46.510;6.686;2022-11-15T05:12:46;4.35;;;1.83;;
57593;SDS011;43423;46.510;6.686;2022-11-15T05:15:11;2.50;;;1.95;;
57593;SDS011;43423;46.510;6.686;2022-11-15T05:17:37;2.17;;;1.60;;
57593;SDS011;43423;46.510;6.686;2022-11-15T05:20:03;3.65;;;2.22;;
57593;SDS011;43423;46.510;6.686;2022-11-15T05:22:29;2.63;;;1.80;;
57593;SDS011;43423;46.510;6.686;2022-11-15T05:27:26;2.55;;;2.33;;
57593;SDS011;43423;46.510;6.686;2022-11-15T05:29:51;3.60;;;1.98;;
57593;SDS011;43423;46.510;6.686;2022-11-15T05:32:17;2.88;;;2.10;;
57593;SDS011;43423;46.510;6.686;2022-11-15T05:34:43;4.13;;;2.33;;
57593;SDS011;43423;46.510;6.686;2022-11-15T05:37:09;2.70;;;2.00;;
57593;SDS011;43423;46.510;6.686;2022-11-15T05:39:35;3.35;;;2.13;;
57593;SDS011;43423;46.510;6.686;2022-11-15T05:42:04;2.42;;;1.73;;
57593;SDS011;43423;46.510;6.686;2022-11-15T05:44:35;3.90;;;1.98;;
57593;SDS011;43423;46.510;6.686;2022-11-15T05:47:02;2.47;;;2.08;;
57593;SDS011;43423;46.510;6.686;2022-11-15T05:49:31;2.58;;;2.20;;
57593;SDS011;43423;46.510;6.686;2022-11-15T05:52:02;3.15;;;2.10;;
57593;SDS011;43423;46.510;6.686;2022-11-15T05:54:30;2.72;;;2.08;;
57593;SDS011;43423;46.510;6.686;2022-11-15T05:56:58;4.40;;;2.03;;
57593;SDS011;43423;46.510;6.686;2022-11-15T05:59:25;3.15;;;1.95;;
57593;SDS011;43423;46.510;6.686;2022-11-15T06:01:53;2.70;;;2.22;;
57593;SDS011;43423;46.510;6.686;2022-11-15T06:04:18;3.40;;;1.67;;
57593;SDS011;43423;46.510;6.686;2022-11-15T06:06:44;6.45;;;2.22;;
57593;SDS011;43423;46.510;6.686;2022-11-15T06:09:11;5.65;;;2.00;;
57593;SDS011;43423;46.510;6.686;2022-11-15T06:11:37;3.28;;;2.47;;
57593;SDS011;43423;46.510;6.686;2022-11-15T06:14:04;4.00;;;2.30;;
57593;SDS011;43423;46.510;6.686;2022-11-15T06:16:30;3.55;;;2.20;;
57593;SDS011;43423;46.510;6.686;2022-11-15T06:18:56;4.97;;;2.20;;
57593;SDS011;43423;46.510;6.686;2022-11-15T06:21:22;5.97;;;2.72;;
57593;SDS011;43423;46.510;6.686;2022-11-15T06:23:48;4.00;;;2.30;;
57593;SDS011;43423;46.510;6.686;2022-11-15T06:26:16;5.00;;;2.67;;
57593;SDS011;43423;46.510;6.686;2022-11-15T06:28:41;8.07;;;2.78;;
57593;SDS011;43423;46.510;6.686;2022-11-15T06:31:08;3.70;;;2.53;;
57593;SDS011;43423;46.510;6.686;2022-11-15T06:33:36;3.92;;;2.35;;
57593;SDS011;43423;46.510;6.686;2022-11-15T06:36:06;5.68;;;2.80;;
57593;SDS011;43423;46.510;6.686;2022-11-15T06:38:34;6.55;;;3.17;;
57593;SDS011;43423;46.510;6.686;2022-11-15T06:41:01;4.75;;;3.08;;
57593;SDS011;43423;46.510;6.686;2022-11-15T06:43:28;6.88;;;3.20;;
57593;SDS011;43423;46.510;6.686;2022-11-15T06:45:54;5.55;;;3.05;;
57593;SDS011;43423;46.510;6.686;2022-11-15T06:48:19;6.32;;;3.53;;
57593;SDS011;43423;46.510;6.686;2022-11-15T06:50:52;6.22;;;3.25;;
57593;SDS011;43423;46.510;6.686;2022-11-15T06:53:20;6.35;;;3.53;;
57593;SDS011;43423;46.510;6.686;2022-11-15T06:55:46;5.07;;;2.85;;
57593;SDS011;43423;46.510;6.686;2022-11-15T06:58:12;8.57;;;3.92;;
57593;SDS011;43423;46.510;6.686;2022-11-15T07:00:38;4.78;;;3.10;;
57593;SDS011;43423;46.510;6.686;2022-11-15T07:03:03;5.97;;;3.70;;
57593;SDS011;43423;46.510;6.686;2022-11-15T07:05:32;5.95;;;4.03;;
57593;SDS011;43423;46.510;6.686;2022-11-15T07:07:59;6.68;;;3.97;;
57593;SDS011;43423;46.510;6.686;2022-11-15T07:10:25;7.25;;;4.45;;
57593;SDS011;43423;46.510;6.686;2022-11-15T07:12:52;9.25;;;4.90;;
57593;SDS011;43423;46.510;6.686;2022-11-15T07:15:19;7.28;;;4.18;;
57593;SDS011;43423;46.510;6.686;2022-11-15T07:17:46;8.40;;;4.32;;
57593;SDS011;43423;46.510;6.686;2022-11-15T07:20:13;6.60;;;4.07;;
57593;SDS011;43423;46.510;6.686;2022-11-15T07:22:39;9.10;;;4.78;;
57593;SDS011;43423;46.510;6.686;2022-11-15T07:25:05;6.95;;;4.30;;
57593;SDS011;43423;46.510;6.686;2022-11-15T07:27:32;8.68;;;3.92;;
57593;SDS011;43423;46.510;6.686;2022-11-15T07:29:58;7.30;;;4.30;;
57593;SDS011;43423;46.510;6.686;2022-11-15T07:32:23;4.65;;;3.65;;
57593;SDS011;43423;46.510;6.686;2022-11-15T07:34:49;5.43;;;3.22;;
57593;SDS011;43423;46.510;6.686;2022-11-15T07:37:14;3.58;;;2.75;;
57593;SDS011;43423;46.510;6.686;2022-11-15T07:39:42;4.05;;;2.40;;
57593;SDS011;43423;46.510;6.686;2022-11-15T07:42:08;2.95;;;1.90;;
57593;SDS011;43423;46.510;6.686;2022-11-15T07:44:55;5.05;;;2.30;;
57593;SDS011;43423;46.510;6.686;2022-11-15T07:47:21;2.55;;;1.73;;
57593;SDS011;43423;46.510;6.686;2022-11-15T07:49:47;3.42;;;1.85;;
57593;SDS011;43423;46.510;6.686;2022-11-15T07:52:13;1.60;;;1.50;;
57593;SDS011;43423;46.510;6.686;2022-11-15T07:54:39;6.22;;;1.40;;
57593;SDS011;43423;46.510;6.686;2022-11-15T07:57:05;2.10;;;1.70;;
57593;SDS011;43423;46.510;6.686;2022-11-15T07:59:32;1.85;;;1.27;;
57593;SDS011;43423;46.510;6.686;2022-11-15T08:01:59;1.52;;;1.30;;
57593;SDS011;43423;46.510;6.686;2022-11-15T08:04:25;1.92;;;1.30;;
57593;SDS011;43423;46.510;6.686;2022-11-15T08:06:51;1.45;;;1.30;;
57593;SDS011;43423;46.510;6.686;2022-11-15T08:09:16;1.33;;;1.13;;
57593;SDS011;43423;46.510;6.686;2022-11-15T08:11:42;2.10;;;1.55;;
57593;SDS011;43423;46.510;6.686;2022-11-15T08:14:08;2.30;;;1.48;;
57593;SDS011;43423;46.510;6.686;2022-11-15T08:16:33;2.00;;;1.48;;
57593;SDS011;43423;46.510;6.686;2022-11-15T08:18:59;3.75;;;1.42;;
57593;SDS011;43423;46.510;6.686;2022-11-15T08:21:25;1.52;;;1.23;;
57593;SDS011;43423;46.510;6.686;2022-11-15T08:23:51;2.03;;;1.65;;
57593;SDS011;43423;46.510;6.686;2022-11-15T08:26:16;1.75;;;1.65;;
57593;SDS011;43423;46.510;6.686;2022-11-15T08:28:42;2.15;;;1.60;;
57593;SDS011;43423;46.510;6.686;2022-11-15T08:31:13;3.20;;;1.67;;
57593;SDS011;43423;46.510;6.686;2022-11-15T08:33:42;2.33;;;1.70;;
57593;SDS011;43423;46.510;6.686;2022-11-15T08:36:10;3.58;;;1.67;;
57593;SDS011;43423;46.510;6.686;2022-11-15T08:38:38;1.85;;;1.45;;
57593;SDS011;43423;46.510;6.686;2022-11-15T08:41:04;2.65;;;1.60;;
57593;SDS011;43423;46.510;6.686;2022-11-15T08:43:31;2.72;;;1.52;;
57593;SDS011;43423;46.510;6.686;2022-11-15T08:45:57;2.13;;;1.73;;
57593;SDS011;43423;46.510;6.686;2022-11-15T08:48:23;2.30;;;1.63;;
57593;SDS011;43423;46.510;6.686;2022-11-15T08:50:53;5.68;;;2.38;;
57593;SDS011;43423;46.510;6.686;2022-11-15T08:53:20;1.67;;;1.52;;
57593;SDS011;43423;46.510;6.686;2022-11-15T08:55:46;2.00;;;1.55;;
57593;SDS011;43423;46.510;6.686;2022-11-15T08:58:11;2.92;;;1.42;;
57593;SDS011;43423;46.510;6.686;2022-11-15T09:00:37;2.35;;;1.50;;
57593;SDS011;43423;46.510;6.686;2022-11-15T09:03:03;4.55;;;1.63;;
57593;SDS011;43423;46.510;6.686;2022-11-15T09:05:30;1.80;;;1.58;;
57593;SDS011;43423;46.510;6.686;2022-11-15T09:07:56;4.50;;;1.40;;
57593;SDS011;43423;46.510;6.686;2022-11-15T09:10:21;2.45;;;1.30;;
57593;SDS011;43423;46.510;6.686;2022-11-15T09:12:47;3.72;;;1.50;;
57593;SDS011;43423;46.510;6.686;2022-11-15T09:15:14;1.70;;;1.50;;
57593;SDS011;43423;46.510;6.686;2022-11-15T09:17:40;2.05;;;1.20;;
57593;SDS011;43423;46.510;6.686;2022-11-15T09:20:06;2.35;;;1.50;;
57593;SDS011;43423;46.510;6.686;2022-11-15T09:22:33;2.13;;;1.55;;
57593;SDS011;43423;46.510;6.686;2022-11-15T09:24:58;2.45;;;1.55;;
57593;SDS011;43423;46.510;6.686;2022-11-15T09:27:28;1.58;;;1.48;;
57593;SDS011;43423;46.510;6.686;2022-11-15T09:29:54;2.20;;;1.33;;
57593;SDS011;43423;46.510;6.686;2022-11-15T09:32:20;1.75;;;1.40;;
57593;SDS011;43423;46.510;6.686;2022-11-15T09:34:47;2.70;;;1.38;;
57593;SDS011;43423;46.510;6.686;2022-11-15T09:37:12;1.95;;;1.25;;
57593;SDS011;43423;46.510;6.686;2022-11-15T09:39:38;1.90;;;1.40;;
57593;SDS011;43423;46.510;6.686;2022-11-15T09:42:17;3.55;;;1.50;;
57593;SDS011;43423;46.510;6.686;2022-11-15T09:47:54;2.88;;;1.50;;
57593;SDS011;43423;46.510;6.686;2022-11-15T09:50:38;5.97;;;1.20;;
57593;SDS011;43423;46.510;6.686;2022-11-15T09:53:10;1.85;;;1.33;;
57593;SDS011;43423;46.510;6.686;2022-11-15T09:56:00;2.38;;;1.17;;
57593;SDS011;43423;46.510;6.686;2022-11-15T09:58:34;4.45;;;1.52;;
57593;SDS011;43423;46.510;6.686;2022-11-15T10:01:12;4.32;;;1.80;;
57593;SDS011;43423;46.510;6.686;2022-11-15T10:03:44;1.70;;;1.27;;
57593;SDS011;43423;46.510;6.686;2022-11-15T10:06:29;3.55;;;1.80;;
57593;SDS011;43423;46.510;6.686;2022-11-15T10:09:06;1.65;;;1.50;;
57593;SDS011;43423;46.510;6.686;2022-11-15T10:11:38;2.85;;;1.63;;
57593;SDS011;43423;46.510;6.686;2022-11-15T10:14:10;1.75;;;1.38;;
57593;SDS011;43423;46.510;6.686;2022-11-15T10:24:16;2.38;;;1.60;;
57593;SDS011;43423;46.510;6.686;2022-11-15T10:26:46;3.00;;;1.77;;
57593;SDS011;43423;46.510;6.686;2022-11-15T10:29:20;3.63;;;1.80;;
57593;SDS011;43423;46.510;6.686;2022-11-15T10:31:46;4.35;;;1.77;;
57593;SDS011;43423;46.510;6.686;2022-11-15T10:36:53;7.32;;;1.88;;
57593;SDS011;43423;46.510;6.686;2022-11-15T10:39:24;3.08;;;1.90;;
57593;SDS011;43423;46.510;6.686;2022-11-15T10:41:50;1.52;;;1.42;;
57593;SDS011;43423;46.510;6.686;2022-11-15T10:46:43;4.57;;;1.48;;
57593;SDS011;43423;46.510;6.686;2022-11-15T10:49:22;2.85;;;1.52;;
57593;SDS011;43423;46.510;6.686;2022-11-15T10:54:45;3.50;;;1.60;;
57593;SDS011;43423;46.510;6.686;2022-11-15T10:57:22;3.95;;;1.55;;
57593;SDS011;43423;46.510;6.686;2022-11-15T11:07:59;3.05;;;2.40;;
57593;SDS011;43423;46.510;6.686;2022-11-15T11:10:29;2.67;;;1.60;;
57593;SDS011;43423;46.510;6.686;2022-11-15T11:12:55;3.58;;;1.85;;
57593;SDS011;43423;46.510;6.686;2022-11-15T11:15:22;1.92;;;1.50;;
57593;SDS011;43423;46.510;6.686;2022-11-15T11:18:07;2.45;;;1.77;;
57593;SDS011;43423;46.510;6.686;2022-11-15T11:20:47;3.55;;;1.80;;
57593;SDS011;43423;46.510;6.686;2022-11-15T11:32:02;5.90;;;2.30;;
57593;SDS011;43423;46.510;6.686;2022-11-15T11:45:27;3.95;;;2.63;;
57593;SDS011;43423;46.510;6.686;2022-11-15T11:48:07;4.22;;;2.00;;
57593;SDS011;43423;46.510;6.686;2022-11-15T11:50:38;4.25;;;2.40;;
57593;SDS011;43423;46.510;6.686;2022-11-15T11:53:29;3.42;;;2.20;;
57593;SDS011;43423;46.510;6.686;2022-11-15T11:56:04;3.10;;;2.17;;
57593;SDS011;43423;46.510;6.686;2022-11-15T11:58:52;6.57;;;2.30;;
57593;SDS011;43423;46.510;6.686;2022-11-15T12:01:24;3.70;;;2.17;;
57593;SDS011;43423;46.510;6.686;2022-11-15T12:04:09;4.45;;;1.88;;
57593;SDS011;43423;46.510;6.686;2022-11-15T12:07:05;5.07;;;3.20;;
57593;SDS011;43423;46.510;6.686;2022-11-15T12:15:52;3.63;;;2.00;;
57593;SDS011;43423;46.510;6.686;2022-11-15T12:18:19;3.20;;;2.00;;
57593;SDS011;43423;46.510;6.686;2022-11-15T12:20:56;5.30;;;2.22;;
57593;SDS011;43423;46.510;6.686;2022-11-15T12:23:28;4.60;;;2.53;;
57593;SDS011;43423;46.510;6.686;2022-11-15T12:26:00;6.88;;;3.15;;
57593;SDS011;43423;46.510;6.686;2022-11-15T12:28:45;5.88;;;2.70;;
57593;SDS011;43423;46.510;6.686;2022-11-15T12:31:17;6.25;;;2.90;;
57593;SDS011;43423;46.510;6.686;2022-11-15T12:33:47;7.40;;;3.28;;
57593;SDS011;43423;46.510;6.686;2022-11-15T12:38:58;3.70;;;2.67;;
57593;SDS011;43423;46.510;6.686;2022-11-15T12:41:28;6.55;;;3.05;;
57593;SDS011;43423;46.510;6.686;2022-11-15T12:44:01;4.85;;;2.72;;
57593;SDS011;43423;46.510;6.686;2022-11-15T13:02:25;5.93;;;3.38;;
57593;SDS011;43423;46.510;6.686;2022-11-15T13:04:53;9.38;;;3.47;;
57593;SDS011;43423;46.510;6.686;2022-11-15T13:30:39;11.57;;;7.07;;
57593;SDS011;43423;46.510;6.686;2022-11-15T13:33:16;16.73;;;7.55;;
57593;SDS011;43423;46.510;6.686;2022-11-15T13:35:51;19.48;;;8.07;;
57593;SDS011;43423;46.510;6.686;2022-11-15T13:38:30;14.18;;;6.75;;
57593;SDS011;43423;46.510;6.686;2022-11-15T13:40:58;14.63;;;8.40;;
57593;SDS011;43423;46.510;6.686;2022-11-15T13:43:27;14.45;;;8.25;;
57593;SDS011;43423;46.510;6.686;2022-11-15T13:46:06;19.50;;;8.43;;
57593;SDS011;43423;46.510;6.686;2022-11-15T13:48:43;15.27;;;8.55;;
57593;SDS011;43423;46.510;6.686;2022-11-15T13:51:18;14.98;;;8.40;;
57593;SDS011;43423;46.510;6.686;2022-11-15T13:53:51;18.17;;;8.52;;
57593;SDS011;43423;46.510;6.686;2022-11-15T13:56:21;16.88;;;8.65;;
57593;SDS011;43423;46.510;6.686;2022-11-15T13:58:47;17.08;;;8.10;;
57593;SDS011;43423;46.510;6.686;2022-11-15T14:01:17;17.38;;;8.30;;
57593;SDS011;43423;46.510;6.686;2022-11-15T14:03:47;15.35;;;7.35;;
57593;SDS011;43423;46.510;6.686;2022-11-15T14:06:18;15.05;;;8.38;;
57593;SDS011;43423;46.510;6.686;2022-11-15T14:08:58;15.20;;;8.50;;
57593;SDS011;43423;46.510;6.686;2022-11-15T14:11:54;12.60;;;8.05;;
57593;SDS011;43423;46.510;6.686;2022-11-15T14:16:51;16.33;;;8.27;;
57593;SDS011;43423;46.510;6.686;2022-11-15T14:24:44;15.85;;;7.65;;
57593;SDS011;43423;46.510;6.686;2022-11-15T14:27:29;14.30;;;7.72;;
57593;SDS011;43423;46.510;6.686;2022-11-15T14:29:54;15.23;;;8.48;;
57593;SDS011;43423;46.510;6.686;2022-11-15T14:32:21;15.35;;;7.82;;
57593;SDS011;43423;46.510;6.686;2022-11-15T14:34:58;11.73;;;7.43;;
57593;SDS011;43423;46.510;6.686;2022-11-15T14:39:52;13.23;;;7.72;;
57593;SDS011;43423;46.510;6.686;2022-11-15T14:42:18;13.65;;;8.45;;
57593;SDS011;43423;46.510;6.686;2022-11-15T14:44:45;12.38;;;8.35;;
57593;SDS011;43423;46.510;6.686;2022-11-15T14:47:11;13.95;;;8.07;;
57593;SDS011;43423;46.510;6.686;2022-11-15T14:49:37;16.50;;;7.82;;
57593;SDS011;43423;46.510;6.686;2022-11-15T14:52:07;16.55;;;8.70;;
57593;SDS011;43423;46.510;6.686;2022-11-15T14:54:41;15.18;;;7.70;;
57593;SDS011;43423;46.510;6.686;2022-11-15T14:57:07;14.57;;;7.78;;
57593;SDS011;43423;46.510;6.686;2022-11-15T14:59:32;12.00;;;7.80;;
57593;SDS011;43423;46.510;6.686;2022-11-15T15:01:58;17.63;;;8.77;;
57593;SDS011;43423;46.510;6.686;2022-11-15T15:04:24;14.75;;;8.07;;
57593;SDS011;43423;46.510;6.686;2022-11-15T15:06:50;13.20;;;8.25;;
57593;SDS011;43423;46.510;6.686;2022-11-15T15:09:16;14.30;;;7.57;;
57593;SDS011;43423;46.510;6.686;2022-11-15T15:11:41;13.63;;;8.05;;
57593;SDS011;43423;46.510;6.686;2022-11-15T15:14:07;14.07;;;8.10;;
57593;SDS011;43423;46.510;6.686;2022-11-15T15:16:33;13.00;;;8.15;;
57593;SDS011;43423;46.510;6.686;2022-11-15T15:18:59;12.40;;;8.40;;
57593;SDS011;43423;46.510;6.686;2022-11-15T15:21:25;13.98;;;8.02;;
57593;SDS011;43423;46.510;6.686;2022-11-15T15:23:53;19.98;;;8.07;;
57593;SDS011;43423;46.510;6.686;2022-11-15T15:26:19;13.98;;;8.02;;
57593;SDS011;43423;46.510;6.686;2022-11-15T15:28:45;14.88;;;7.90;;
57593;SDS011;43423;46.510;6.686;2022-11-15T15:31:13;14.50;;;7.80;;
57593;SDS011;43423;46.510;6.686;2022-11-15T15:33:39;20.02;;;8.88;;
57593;SDS011;43423;46.510;6.686;2022-11-15T15:36:08;15.73;;;8.00;;
57593;SDS011;43423;46.510;6.686;2022-11-15T15:38:36;18.48;;;8.38;;
57593;SDS011;43423;46.510;6.686;2022-11-15T15:41:02;12.98;;;7.80;;
57593;SDS011;43423;46.510;6.686;2022-11-15T15:43:28;17.50;;;7.15;;
57593;SDS011;43423;46.510;6.686;2022-11-15T15:45:53;13.25;;;7.28;;
57593;SDS011;43423;46.510;6.686;2022-11-15T15:48:19;13.80;;;8.02;;
57593;SDS011;43423;46.510;6.686;2022-11-15T15:50:44;13.23;;;7.68;;
57593;SDS011;43423;46.510;6.686;2022-11-15T15:53:11;11.88;;;7.60;;
57593;SDS011;43423;46.510;6.686;2022-11-15T15:55:37;15.52;;;7.55;;
57593;SDS011;43423;46.510;6.686;2022-11-15T15:58:04;13.82;;;7.55;;
57593;SDS011;43423;46.510;6.686;2022-11-15T16:00:30;15.35;;;7.72;;
57593;SDS011;43423;46.510;6.686;2022-11-15T16:02:58;14.20;;;8.15;;
57593;SDS011;43423;46.510;6.686;2022-11-15T16:05:24;17.13;;;8.48;;
57593;SDS011;43423;46.510;6.686;2022-11-15T16:07:50;14.00;;;7.88;;
57593;SDS011;43423;46.510;6.686;2022-11-15T16:10:18;13.75;;;8.38;;
57593;SDS011;43423;46.510;6.686;2022-11-15T16:12:44;16.75;;;8.27;;
57593;SDS011;43423;46.510;6.686;2022-11-15T16:15:09;17.52;;;8.48;;
57593;SDS011;43423;46.510;6.686;2022-11-15T16:17:37;15.48;;;8.07;;
57593;SDS011;43423;46.510;6.686;2022-11-15T16:20:26;15.75;;;8.55;;
57593;SDS011;43423;46.510;6.686;2022-11-15T16:22:59;14.80;;;8.15;;
57593;SDS011;43423;46.510;6.686;2022-11-15T16:25:25;14.82;;;7.90;;
57593;SDS011;43423;46.510;6.686;2022-11-15T16:27:51;12.63;;;8.15;;
57593;SDS011;43423;46.510;6.686;2022-11-15T16:30:18;19.10;;;8.73;;
57593;SDS011;43423;46.510;6.686;2022-11-15T16:32:46;15.73;;;8.85;;
57593;SDS011;43423;46.510;6.686;2022-11-15T16:35:13;14.38;;;8.45;;
57593;SDS011;43423;46.510;6.686;2022-11-15T16:37:39;12.23;;;7.78;;
57593;SDS011;43423;46.510;6.686;2022-11-15T16:40:14;14.73;;;8.27;;
57593;SDS011;43423;46.510;6.686;2022-11-15T16:42:47;20.60;;;9.73;;
57593;SDS011;43423;46.510;6.686;2022-11-15T16:45:12;21.67;;;11.15;;
57593;SDS011;43423;46.510;6.686;2022-11-15T16:47:39;21.10;;;11.10;;
57593;SDS011;43423;46.510;6.686;2022-11-15T16:50:05;20.23;;;10.13;;
57593;SDS011;43423;46.510;6.686;2022-11-15T16:52:31;20.17;;;9.65;;
57593;SDS011;43423;46.510;6.686;2022-11-15T16:54:56;19.27;;;9.07;;
57593;SDS011;43423;46.510;6.686;2022-11-15T16:57:22;15.27;;;9.40;;
57593;SDS011;43423;46.510;6.686;2022-11-15T16:59:47;20.52;;;9.45;;
57593;SDS011;43423;46.510;6.686;2022-11-15T17:02:13;16.90;;;9.65;;
57593;SDS011;43423;46.510;6.686;2022-11-15T17:04:39;20.40;;;11.07;;
57593;SDS011;43423;46.510;6.686;2022-11-15T17:07:05;20.17;;;10.18;;
57593;SDS011;43423;46.510;6.686;2022-11-15T17:09:31;19.67;;;10.52;;
57593;SDS011;43423;46.510;6.686;2022-11-15T17:11:57;19.27;;;10.45;;
57593;SDS011;43423;46.510;6.686;2022-11-15T17:14:22;18.38;;;10.13;;
57593;SDS011;43423;46.510;6.686;2022-11-15T17:16:48;18.05;;;9.05;;
57593;SDS011;43423;46.510;6.686;2022-11-15T17:22:08;15.68;;;9.85;;
57593;SDS011;43423;46.510;6.686;2022-11-15T17:24:33;22.52;;;10.80;;
57593;SDS011;43423;46.510;6.686;2022-11-15T17:26:59;18.05;;;10.05;;